Molara, Italy

5:01 PM CEST on June 27, 2017 (GMT +0200)
Grottaferrata | | Change Station

Elev 1542 ft 41.79 °N, 12.71 °E | Updated 2 days ago

Scattered Clouds
Scattered Clouds
84.7 °F
Feels Like 84.7 °F
N
0.0
Wind Variable Wind from NW
Gusts 0.0 mph

Today
High -- | Low -- °F
--% Chance of Precip.
Yesterday
High -- | Low -- °F
Precip. -- in
Pressure 29.80 in
Visibility 6.2 miles
Clouds Scattered Clouds 4000 ft
Dew Point 63.4 °F
Humidity 49%
Rainfall in
Snow Depth Not available.
5:36 AM 8:48 PM
Waxing Crescent, 17% visible
METAR LIRA 271450Z 17013KT 140V210 9999 SCT040 30/19 Q1009
Pressure 29.80 in
Visibility 6.2 miles
Clouds Scattered Clouds 4000 ft
Dew Point 63.4 °F
Humidity 49%
Rainfall in
Snow Depth Not available.
5:36 AM 8:48 PM
Waxing Crescent, 17% visible
METAR LIRA 271450Z 17013KT 140V210 9999 SCT040 30/19 Q1009

Get Severe Weather Alerts

Thanks for signing up!

Be on the lookout for a verification email in your inbox.

You'll start receiving the daily forecast at 6 AM.

×

10-Day Weather Forecast

×

Almanac

Astronomy

Jun. 27, 2017 Rise Set
Actual Time
Civil Twilight
Nautical Twilight
Astronomical Twilight
Moon
Length of Visible Light
Length of Day
Tomorrow will be .
, % of the Moon is Illuminated

Today's Extremes

Country Highs Country Lows

Community

WunderPhotos

Category 6

Welcome to Category 6. This is the collective home for Weather Underground's featured writeups by Dr. Jeff Masters (right), Bob Henson (left), Chris Burt, and other regular contributors.

Nearby

Air Quality

  Air Quality AQ Index Pollutant
Not available.

Snow Depth

Station Depth Elevation

Earthquake Activity

City Distance Mag. Time & Date
Minimum magnitude displayed is 2.5.

Coastal Water Temperatures

Place Temperature

Stations

Nearby Weather Stations

Station Location Temp. Windchill Dew Point Humidity Wind Precip. Elev Updated Type